createdAt,value
2022-08-31T00:00:36.648Z,98695.59
2022-08-31T00:03:56.952Z,98694.94
2022-08-31T00:06:58.536Z,98690.09
2022-08-31T00:10:00.043Z,98683.16
2022-08-31T00:13:02.959Z,98682.63
2022-08-31T00:16:04.638Z,98677.63
2022-08-31T00:19:06.230Z,98674.94
2022-08-31T00:22:07.762Z,98687.63
2022-08-31T00:25:09.698Z,98682.16
2022-08-31T00:28:11.919Z,98677.72
2022-08-31T00:31:13.725Z,98677.78
2022-08-31T00:34:15.301Z,98682.06
2022-08-31T00:37:16.807Z,98679.31
2022-08-31T00:40:18.381Z,98681.00
2022-08-31T00:43:45.110Z,98672.97
2022-08-31T00:46:46.862Z,98668.63
2022-08-31T00:49:51.316Z,98660.84
2022-08-31T00:52:55.093Z,98663.31
2022-08-31T00:55:56.599Z,98663.50
2022-08-31T00:58:58.680Z,98655.06
2022-08-31T01:02:00.956Z,98656.94
2022-08-31T01:05:02.549Z,98661.41
2022-08-31T01:08:04.328Z,98666.09
2022-08-31T01:11:05.966Z,98671.31
2022-08-31T01:14:08.325Z,98667.81
2022-08-31T01:17:09.868Z,98667.91
2022-08-31T01:20:21.916Z,98668.75
2022-08-31T01:23:24.803Z,98654.41
2022-08-31T01:26:27.434Z,98651.72
2022-08-31T01:29:29.498Z,98646.53
2022-08-31T01:32:31.005Z,98642.97
2022-08-31T01:35:32.539Z,98638.53
2022-08-31T01:38:34.608Z,98634.84
2022-08-31T01:41:41.229Z,98633.50
2022-08-31T01:44:42.786Z,98629.59
2022-08-31T01:47:44.296Z,98617.41
2022-08-31T01:50:45.990Z,98620.03
2022-08-31T01:53:48.657Z,98616.34
2022-08-31T01:56:50.381Z,98605.00
2022-08-31T01:59:51.945Z,98597.38
2022-08-31T02:02:53.740Z,98596.75
2022-08-31T02:08:56.369Z,98599.75
2022-08-31T02:11:57.966Z,98594.97
2022-08-31T02:14:59.528Z,98596.53
2022-08-31T02:18:01.030Z,98602.59
2022-08-31T02:21:04.625Z,98591.88
2022-08-31T02:24:06.569Z,98596.44
2022-08-31T02:27:07.928Z,98606.94
2022-08-31T02:30:18.220Z,98608.66
2022-08-31T02:33:19.813Z,98605.44
2022-08-31T02:36:21.464Z,98614.13
2022-08-31T02:39:22.991Z,98613.44
2022-08-31T02:42:24.511Z,98613.44
2022-08-31T02:45:26.047Z,98616.06
2022-08-31T02:48:27.688Z,98615.09
2022-08-31T02:51:29.221Z,98615.13
2022-08-31T02:54:30.743Z,98620.50
2022-08-31T02:57:32.264Z,98622.47
2022-08-31T03:00:34.595Z,98620.50
2022-08-31T03:03:36.259Z,98616.41
2022-08-31T03:06:37.771Z,98611.28
2022-08-31T03:09:39.331Z,98606.88
2022-08-31T03:12:40.964Z,98616.59
2022-08-31T03:15:42.594Z,98600.75
2022-08-31T03:18:44.255Z,98598.47
2022-08-31T03:21:46.833Z,98593.34
2022-08-31T03:24:48.986Z,98586.41
2022-08-31T03:27:50.739Z,98596.03
2022-08-31T03:30:52.520Z,98584.63
2022-08-31T03:33:54.099Z,98588.03
2022-08-31T03:36:55.599Z,98585.53
2022-08-31T03:39:57.269Z,98583.69
2022-08-31T03:42:58.873Z,98584.78
2022-08-31T03:46:00.484Z,98582.06
2022-08-31T03:49:02.260Z,98593.53
2022-08-31T03:52:03.830Z,98587.41
2022-08-31T03:55:05.896Z,98584.16
2022-08-31T03:58:07.673Z,98587.16
2022-08-31T04:01:11.443Z,98585.41
2022-08-31T04:04:13.516Z,98579.91
2022-08-31T04:07:15.003Z,98576.63
2022-08-31T04:10:16.533Z,98583.25
2022-08-31T04:13:18.195Z,98577.25
2022-08-31T04:16:21.100Z,98570.41
2022-08-31T04:19:24.871Z,98571.13
2022-08-31T04:22:26.420Z,98568.81
2022-08-31T04:25:27.939Z,98561.81
2022-08-31T04:28:29.602Z,98556.75
2022-08-31T04:31:31.204Z,98557.66
2022-08-31T04:34:32.766Z,98549.13
2022-08-31T04:37:34.385Z,98554.44
2022-08-31T04:40:40.334Z,98556.94
2022-08-31T04:43:46.676Z,98556.03
2022-08-31T04:46:48.743Z,98570.19
2022-08-31T04:49:50.178Z,98578.28
2022-08-31T04:53:03.944Z,98589.91
2022-08-31T04:56:14.163Z,98603.13
2022-08-31T04:59:16.478Z,98609.81
2022-08-31T05:02:18.056Z,98622.84
2022-08-31T05:05:19.594Z,98625.25
2022-08-31T05:08:21.127Z,98622.91
2022-08-31T05:11:24.969Z,98632.34
2022-08-31T05:14:26.746Z,98639.34
2022-08-31T05:17:28.244Z,98638.03
2022-08-31T05:20:29.745Z,98642.84
2022-08-31T05:23:31.328Z,98636.50
2022-08-31T05:26:34.496Z,98626.09
2022-08-31T05:29:36.053Z,98624.16
2022-08-31T05:32:37.889Z,98622.50
2022-08-31T05:35:41.113Z,98629.59
2022-08-31T05:38:43.444Z,98624.44
2022-08-31T05:41:45.810Z,98627.34
2022-08-31T05:44:47.336Z,98633.69
2022-08-31T05:47:48.950Z,98618.66
2022-08-31T05:50:50.615Z,98632.50
2022-08-31T05:53:53.584Z,98635.16
2022-08-31T05:56:55.085Z,98635.09
2022-08-31T06:00:03.358Z,98641.25
2022-08-31T06:03:05.358Z,98638.63
2022-08-31T06:06:09.649Z,98640.50
2022-08-31T06:09:11.257Z,98640.34
2022-08-31T06:12:15.212Z,98641.28
2022-08-31T06:15:17.677Z,98644.63
2022-08-31T06:18:20.981Z,98649.19
2022-08-31T06:21:27.544Z,98642.13
2022-08-31T06:24:29.072Z,98651.66
2022-08-31T06:27:30.599Z,98649.94
2022-08-31T06:30:33.227Z,98650.72
2022-08-31T06:33:35.529Z,98660.53
2022-08-31T06:36:37.033Z,98653.22
2022-08-31T06:39:38.844Z,98656.63
2022-08-31T06:42:40.328Z,98647.75
2022-08-31T06:45:41.893Z,98662.69
2022-08-31T06:48:43.463Z,98656.28
2022-08-31T06:51:45.157Z,98657.13
2022-08-31T06:54:46.721Z,98661.47
2022-08-31T06:57:48.568Z,98662.66
2022-08-31T07:00:50.287Z,98664.72
2022-08-31T07:03:55.688Z,98659.06
2022-08-31T07:06:57.212Z,98671.50
2022-08-31T07:09:58.876Z,98673.88
2022-08-31T07:13:00.375Z,98666.97
2022-08-31T07:16:06.261Z,98660.91
2022-08-31T07:19:08.310Z,98678.03
2022-08-31T07:22:11.425Z,98675.25
2022-08-31T07:25:18.143Z,98670.69
2022-08-31T07:28:19.649Z,98678.66
2022-08-31T07:31:22.844Z,98675.22
2022-08-31T07:34:26.695Z,98671.34
2022-08-31T07:37:46.785Z,98676.00
2022-08-31T07:41:08.192Z,98682.75
2022-08-31T07:44:11.127Z,98679.97
2022-08-31T07:47:14.024Z,98689.72
2022-08-31T07:50:16.973Z,98694.81
2022-08-31T07:53:21.113Z,98699.44
2022-08-31T07:56:24.106Z,98703.13
2022-08-31T07:59:25.612Z,98708.38
2022-08-31T08:02:28.983Z,98706.94
2022-08-31T08:05:32.529Z,98719.47
2022-08-31T08:08:37.859Z,98715.72
2022-08-31T08:11:44.364Z,98717.38
2022-08-31T08:14:45.943Z,98721.53
2022-08-31T08:17:47.490Z,98720.06
2022-08-31T08:20:49.374Z,98737.72
2022-08-31T08:23:50.937Z,98746.19
2022-08-31T08:26:54.551Z,98745.31
2022-08-31T08:29:56.222Z,98753.34
2022-08-31T08:33:01.289Z,98753.91
2022-08-31T08:36:07.365Z,98759.22
2022-08-31T08:39:09.482Z,98752.72
2022-08-31T08:42:15.106Z,98763.34
2022-08-31T08:45:16.773Z,98769.84
2022-08-31T08:48:19.828Z,98776.78
2022-08-31T08:51:25.056Z,98778.97
2022-08-31T08:54:28.926Z,98783.16
2022-08-31T08:57:31.984Z,98788.09
2022-08-31T09:00:34.752Z,98790.44
2022-08-31T09:03:44.264Z,98786.06
2022-08-31T09:07:22.909Z,98796.56
2022-08-31T09:10:43.716Z,98801.09
2022-08-31T09:14:08.188Z,98807.03
2022-08-31T09:17:16.938Z,98812.06
2022-08-31T09:20:18.545Z,98814.38
2022-08-31T09:23:20.918Z,98818.75
2022-08-31T09:26:25.927Z,98822.16
2022-08-31T09:29:29.355Z,98828.09
2022-08-31T09:32:34.821Z,98826.38
2022-08-31T09:35:43.730Z,98825.28
2022-08-31T09:38:46.944Z,98819.97
2022-08-31T09:41:48.920Z,98825.69
2022-08-31T09:44:51.287Z,98832.88
2022-08-31T09:47:52.939Z,98830.88
2022-08-31T09:51:00.955Z,98823.38
2022-08-31T09:54:25.159Z,98833.34
2022-08-31T09:57:53.868Z,98829.13
2022-08-31T10:00:55.452Z,98837.47
2022-08-31T10:04:12.277Z,98829.31
2022-08-31T10:07:28.955Z,98834.28
2022-08-31T10:10:33.068Z,98842.75
2022-08-31T10:13:49.695Z,98844.78
2022-08-31T10:17:00.257Z,98852.31
2022-08-31T10:20:09.809Z,98848.91
2022-08-31T10:23:38.314Z,98849.50
2022-08-31T10:26:46.506Z,98857.84
2022-08-31T10:29:52.866Z,98861.75
2022-08-31T10:33:16.224Z,98860.81
2022-08-31T10:36:17.958Z,98862.59
2022-08-31T10:39:24.791Z,98873.09
2022-08-31T10:42:37.333Z,98869.88
2022-08-31T10:45:43.685Z,98864.03
2022-08-31T10:48:54.335Z,98875.25
2022-08-31T10:52:10.225Z,98870.94
2022-08-31T10:55:15.132Z,98877.59
2022-08-31T10:58:31.192Z,98875.09
2022-08-31T11:01:58.789Z,98865.34
2022-08-31T11:05:30.051Z,98873.56
2022-08-31T11:08:49.995Z,98858.84
2022-08-31T11:12:03.808Z,98853.34
2022-08-31T11:15:32.222Z,98842.88
2022-08-31T11:18:46.037Z,98847.72
2022-08-31T11:22:08.440Z,98847.97
2022-08-31T11:25:15.099Z,98843.63
2022-08-31T11:28:32.716Z,98846.44
2022-08-31T11:31:34.438Z,98840.22
2022-08-31T11:34:46.998Z,98830.38
2022-08-31T11:37:56.037Z,98826.63
2022-08-31T11:40:59.592Z,98825.78
2022-08-31T11:44:04.616Z,98825.31
2022-08-31T11:47:12.906Z,98813.97
2022-08-31T11:50:21.788Z,98816.94
2022-08-31T11:53:37.651Z,98813.41
2022-08-31T11:56:44.235Z,98800.88
2022-08-31T11:59:46.359Z,98795.69
2022-08-31T12:03:02.661Z,98788.66
2022-08-31T12:06:05.746Z,98786.09
2022-08-31T12:09:32.636Z,98777.88
2022-08-31T12:12:46.210Z,98758.22
2022-08-31T12:16:14.901Z,98754.34
2022-08-31T12:19:50.277Z,98766.19
2022-08-31T12:23:32.934Z,98764.38
2022-08-31T12:26:47.195Z,98773.78
2022-08-31T12:29:49.894Z,98777.66
2022-08-31T12:33:11.741Z,98772.66
2022-08-31T12:36:14.389Z,98773.22
2022-08-31T12:39:26.216Z,98779.91
2022-08-31T12:42:27.702Z,98772.72
2022-08-31T12:45:47.983Z,98766.91
2022-08-31T12:49:12.095Z,98774.44
2022-08-31T12:52:20.553Z,98774.31
2022-08-31T12:55:43.894Z,98772.44
2022-08-31T12:59:00.206Z,98769.13
2022-08-31T13:02:01.882Z,98772.66
2022-08-31T13:05:04.029Z,98768.19
2022-08-31T13:08:21.827Z,98770.88
2022-08-31T13:11:35.225Z,98770.69
2022-08-31T13:14:43.127Z,98772.06
2022-08-31T13:17:45.478Z,98768.13
2022-08-31T13:20:47.201Z,98756.09
2022-08-31T13:23:48.842Z,98759.22
2022-08-31T13:27:03.814Z,98762.34
2022-08-31T13:30:18.845Z,98746.53
2022-08-31T13:33:24.896Z,98752.81
2022-08-31T13:36:38.703Z,98737.78
2022-08-31T13:39:42.812Z,98741.84
2022-08-31T13:42:47.294Z,98732.16
2022-08-31T13:45:58.338Z,98730.03
2022-08-31T13:49:01.942Z,98732.94
2022-08-31T13:52:04.841Z,98723.31
2022-08-31T13:55:09.335Z,98731.75
2022-08-31T13:58:30.877Z,98722.25
2022-08-31T14:01:32.590Z,98723.41
2022-08-31T14:04:44.519Z,98726.69
2022-08-31T14:07:46.650Z,98720.91
2022-08-31T14:10:49.575Z,98711.47
2022-08-31T14:13:51.937Z,98703.03
2022-08-31T14:16:57.366Z,98705.31
2022-08-31T14:20:25.208Z,98706.78
2022-08-31T14:23:27.525Z,98687.31
2022-08-31T14:26:37.256Z,98700.06
2022-08-31T14:29:41.001Z,98720.34
2022-08-31T14:32:45.737Z,98711.31
2022-08-31T14:35:47.301Z,98711.41
2022-08-31T14:38:50.655Z,98696.09
2022-08-31T14:41:54.121Z,98700.31
2022-08-31T14:45:06.756Z,98706.22
2022-08-31T14:48:10.841Z,98709.78
2022-08-31T14:51:12.379Z,98708.53
2022-08-31T14:54:16.858Z,98715.53
2022-08-31T14:57:26.805Z,98699.09
2022-08-31T15:00:31.625Z,98709.22
2022-08-31T15:03:35.006Z,98705.00
2022-08-31T15:06:36.936Z,98703.50
2022-08-31T15:09:43.042Z,98697.00
2022-08-31T15:12:45.151Z,98704.84
2022-08-31T15:15:47.850Z,98702.81
2022-08-31T15:18:49.670Z,98700.16
2022-08-31T15:21:52.792Z,98692.94
2022-08-31T15:25:00.487Z,98685.66
2022-08-31T15:28:02.125Z,98687.09
2022-08-31T15:31:11.382Z,98682.59
2022-08-31T15:34:19.126Z,98701.34
2022-08-31T15:37:21.440Z,98691.63
2022-08-31T15:40:23.475Z,98698.22
2022-08-31T15:43:25.373Z,98699.19
2022-08-31T15:46:45.638Z,98692.69
2022-08-31T15:49:47.142Z,98691.75
2022-08-31T15:52:51.205Z,98693.97
2022-08-31T15:55:53.825Z,98694.50
2022-08-31T15:58:58.585Z,98689.09
2022-08-31T16:02:01.296Z,98688.50
2022-08-31T16:05:03.698Z,98696.94
2022-08-31T16:08:08.579Z,98688.41
2022-08-31T16:11:10.547Z,98682.84
2022-08-31T16:14:15.139Z,98683.00
2022-08-31T16:17:19.711Z,98682.13
2022-08-31T16:20:21.286Z,98685.28
2022-08-31T16:23:24.778Z,98682.72
2022-08-31T16:26:30.167Z,98682.94
2022-08-31T16:29:31.802Z,98673.53
2022-08-31T16:32:33.361Z,98671.19
2022-08-31T16:35:36.306Z,98665.22
2022-08-31T16:38:37.884Z,98683.25
2022-08-31T16:41:39.308Z,98680.00
2022-08-31T16:44:41.560Z,98673.28
2022-08-31T16:47:43.931Z,98675.50
2022-08-31T16:50:47.138Z,98689.44
2022-08-31T16:53:50.695Z,98684.44
2022-08-31T16:56:52.448Z,98686.88
2022-08-31T16:59:54.527Z,98683.19
2022-08-31T17:02:56.092Z,98678.22
2022-08-31T17:05:57.537Z,98681.28
2022-08-31T17:09:01.799Z,98682.53
2022-08-31T17:12:07.589Z,98682.22
2022-08-31T17:15:14.275Z,98682.09
2022-08-31T17:18:15.870Z,98681.44
2022-08-31T17:21:18.435Z,98680.50
2022-08-31T17:24:23.369Z,98680.38
2022-08-31T17:27:25.527Z,98687.00
2022-08-31T17:30:27.149Z,98683.97
2022-08-31T17:33:28.605Z,98681.44
2022-08-31T17:36:37.246Z,98687.38
2022-08-31T17:39:40.466Z,98692.84
2022-08-31T17:42:42.206Z,98683.38
2022-08-31T17:45:43.775Z,98692.03
2022-08-31T17:48:46.017Z,98694.88
2022-08-31T17:51:48.254Z,98697.53
2022-08-31T17:54:51.100Z,98700.56
2022-08-31T17:57:53.236Z,98699.94
2022-08-31T18:00:55.459Z,98696.78
2022-08-31T18:03:58.698Z,98692.84
2022-08-31T18:07:00.459Z,98697.19
2022-08-31T18:10:01.898Z,98692.59
2022-08-31T18:13:03.441Z,98694.41
2022-08-31T18:16:08.141Z,98703.63
2022-08-31T18:19:09.866Z,98704.69
2022-08-31T18:22:12.878Z,98699.81
2022-08-31T18:25:14.434Z,98703.03
2022-08-31T18:28:17.856Z,98692.75
2022-08-31T18:31:24.084Z,98699.00
2022-08-31T18:34:26.056Z,98707.75
2022-08-31T18:37:27.698Z,98702.50
2022-08-31T18:40:47.997Z,98699.25
2022-08-31T18:44:08.273Z,98713.44
2022-08-31T18:47:11.020Z,98711.81
2022-08-31T18:50:13.244Z,98709.00
2022-08-31T18:53:28.673Z,98721.22
2022-08-31T18:56:31.315Z,98719.59
2022-08-31T18:59:32.863Z,98718.81
2022-08-31T19:02:40.484Z,98723.31
2022-08-31T19:05:42.064Z,98714.81
2022-08-31T19:08:43.915Z,98720.38
2022-08-31T19:11:51.779Z,98718.66
2022-08-31T19:14:55.394Z,98720.16
2022-08-31T19:17:57.228Z,98722.75
2022-08-31T19:20:59.077Z,98718.53
2022-08-31T19:24:00.996Z,98725.75
2022-08-31T19:27:02.566Z,98723.72
2022-08-31T19:30:06.050Z,98718.38
2022-08-31T19:33:08.357Z,98720.06
2022-08-31T19:36:11.542Z,98725.59
2022-08-31T19:39:18.330Z,98731.34
2022-08-31T19:42:20.104Z,98725.03
2022-08-31T19:45:23.455Z,98728.31
2022-08-31T19:48:25.133Z,98725.84
2022-08-31T19:51:27.669Z,98717.94
2022-08-31T19:54:32.595Z,98723.28
2022-08-31T19:57:35.011Z,98711.97
2022-08-31T20:00:37.761Z,98715.59
2022-08-31T20:03:40.774Z,98708.81
2022-08-31T20:06:42.589Z,98709.13
2022-08-31T20:09:44.141Z,98708.56
2022-08-31T20:12:46.548Z,98707.31
2022-08-31T20:15:48.158Z,98714.66
2022-08-31T20:18:50.979Z,98708.69
2022-08-31T20:22:06.862Z,98717.06
2022-08-31T20:25:09.114Z,98710.94
2022-08-31T20:28:13.069Z,98708.63
2022-08-31T20:31:14.734Z,98711.63
2022-08-31T20:34:18.813Z,98710.13
2022-08-31T20:37:20.640Z,98709.38
2022-08-31T20:40:22.353Z,98709.66
2022-08-31T20:43:24.103Z,98707.22
2022-08-31T20:46:45.600Z,98703.03
2022-08-31T20:49:54.314Z,98707.47
2022-08-31T20:52:56.855Z,98709.16
2022-08-31T20:55:58.365Z,98702.38
2022-08-31T20:59:01.684Z,98698.00
2022-08-31T21:02:05.583Z,98695.63
2022-08-31T21:05:36.490Z,98692.28
2022-08-31T21:08:29.366Z,98698.81
2022-08-31T21:11:35.603Z,98690.34
2022-08-31T21:14:37.508Z,98687.81
2022-08-31T21:17:40.539Z,98681.06
2022-08-31T21:20:42.550Z,98677.38
2022-08-31T21:23:44.666Z,98679.06
2022-08-31T21:26:46.345Z,98678.97
2022-08-31T21:29:49.916Z,98673.81
2022-08-31T21:32:51.726Z,98671.44
2022-08-31T21:36:07.836Z,98669.03
2022-08-31T21:39:10.398Z,98661.41
2022-08-31T21:42:11.902Z,98666.72
2022-08-31T21:45:13.467Z,98670.94
2022-08-31T21:48:14.982Z,98662.97
2022-08-31T21:51:20.494Z,98664.88
2022-08-31T21:54:24.034Z,98668.53
2022-08-31T21:57:25.714Z,98667.97
2022-08-31T22:00:29.566Z,98670.97
2022-08-31T22:03:36.171Z,98676.34
2022-08-31T22:06:37.854Z,98669.53
2022-08-31T22:09:39.388Z,98673.22
2022-08-31T22:12:40.918Z,98665.47
2022-08-31T22:15:43.358Z,98663.78
2022-08-31T22:19:06.399Z,98664.88
2022-08-31T22:22:11.930Z,98664.84
2022-08-31T22:25:13.981Z,98664.06
2022-08-31T22:28:15.554Z,98657.00
2022-08-31T22:31:17.925Z,98657.63
2022-08-31T22:34:21.015Z,98659.53
2022-08-31T22:37:22.605Z,98658.97
2022-08-31T22:40:24.174Z,98660.06
2022-08-31T22:43:25.792Z,98666.22
2022-08-31T22:46:28.384Z,98657.31
2022-08-31T22:49:30.103Z,98659.75
2022-08-31T22:52:32.500Z,98656.28
2022-08-31T22:55:37.370Z,98657.16
2022-08-31T22:58:40.531Z,98657.25
2022-08-31T23:01:50.527Z,98654.81
2022-08-31T23:04:52.239Z,98656.56
2022-08-31T23:07:53.774Z,98645.19
2022-08-31T23:10:56.150Z,98642.53
2022-08-31T23:13:58.768Z,98634.50
2022-08-31T23:17:04.047Z,98644.16
2022-08-31T23:20:07.243Z,98630.06
2022-08-31T23:23:08.872Z,98648.56
2022-08-31T23:26:10.776Z,98635.41
2022-08-31T23:29:13.279Z,98638.25
2022-08-31T23:32:19.543Z,98630.38
2022-08-31T23:35:22.046Z,98626.75
2022-08-31T23:38:25.544Z,98625.81
2022-08-31T23:41:29.531Z,98627.56
2022-08-31T23:44:31.636Z,98623.34
2022-08-31T23:47:33.191Z,98628.97
2022-08-31T23:50:35.011Z,98618.50
2022-08-31T23:53:37.487Z,98618.47
2022-08-31T23:56:40.831Z,98613.38
2022-08-31T23:59:42.353Z,98625.47
